sensor_id;sensor_type;location;lat;lon;timestamp;temperature;humidity
3756;DHT22;1893;52.526;13.360;2023-07-02T00:01:08;17.40;99.90
3756;DHT22;1893;52.526;13.360;2023-07-02T00:03:34;17.50;99.90
3756;DHT22;1893;52.526;13.360;2023-07-02T00:05:59;17.40;99.90
3756;DHT22;1893;52.526;13.360;2023-07-02T00:08:25;17.40;99.90
3756;DHT22;1893;52.526;13.360;2023-07-02T00:10:51;17.40;99.90
3756;DHT22;1893;52.526;13.360;2023-07-02T00:13:16;17.40;99.90
3756;DHT22;1893;52.526;13.360;2023-07-02T00:15:42;17.40;99.90
3756;DHT22;1893;52.526;13.360;2023-07-02T00:18:07;17.40;99.90
3756;DHT22;1893;52.526;13.360;2023-07-02T00:20:33;17.40;99.90
3756;DHT22;1893;52.526;13.360;2023-07-02T00:23:03;17.30;99.90
3756;DHT22;1893;52.526;13.360;2023-07-02T00:25:29;17.40;99.90
3756;DHT22;1893;52.526;13.360;2023-07-02T00:27:55;17.30;99.90
3756;DHT22;1893;52.526;13.360;2023-07-02T00:30:20;17.40;99.90
3756;DHT22;1893;52.526;13.360;2023-07-02T00:32:46;17.30;99.90
3756;DHT22;1893;52.526;13.360;2023-07-02T00:35:12;17.30;99.90
3756;DHT22;1893;52.526;13.360;2023-07-02T00:37:37;17.30;99.90
3756;DHT22;1893;52.526;13.360;2023-07-02T00:40:04;17.20;99.90
3756;DHT22;1893;52.526;13.360;2023-07-02T00:42:29;17.20;99.90
3756;DHT22;1893;52.526;13.360;2023-07-02T00:44:56;17.20;99.90
3756;DHT22;1893;52.526;13.360;2023-07-02T00:47:23;17.20;99.90
3756;DHT22;1893;52.526;13.360;2023-07-02T00:49:50;17.20;99.90
3756;DHT22;1893;52.526;13.360;2023-07-02T00:52:16;17.30;99.90
3756;DHT22;1893;52.526;13.360;2023-07-02T00:54:44;17.30;99.90
3756;DHT22;1893;52.526;13.360;2023-07-02T00:57:09;17.30;99.90
3756;DHT22;1893;52.526;13.360;2023-07-02T00:59:35;17.30;99.90
3756;DHT22;1893;52.526;13.360;2023-07-02T01:02:06;17.20;99.90
3756;DHT22;1893;52.526;13.360;2023-07-02T01:04:32;17.20;99.90
3756;DHT22;1893;52.526;13.360;2023-07-02T01:06:57;17.20;99.90
3756;DHT22;1893;52.526;13.360;2023-07-02T01:09:24;17.30;99.90
3756;DHT22;1893;52.526;13.360;2023-07-02T01:12:00;17.10;99.90
3756;DHT22;1893;52.526;13.360;2023-07-02T01:14:33;17.20;99.90
3756;DHT22;1893;52.526;13.360;2023-07-02T01:17:02;17.10;99.90
3756;DHT22;1893;52.526;13.360;2023-07-02T01:19:49;17.10;99.90
3756;DHT22;1893;52.526;13.360;2023-07-02T01:22:23;17.20;99.90
3756;DHT22;1893;52.526;13.360;2023-07-02T01:24:50;17.10;99.90
3756;DHT22;1893;52.526;13.360;2023-07-02T01:27:17;17.10;99.90
3756;DHT22;1893;52.526;13.360;2023-07-02T01:29:43;17.20;99.90
3756;DHT22;1893;52.526;13.360;2023-07-02T01:32:10;17.10;99.90
3756;DHT22;1893;52.526;13.360;2023-07-02T01:34:36;17.10;99.90
3756;DHT22;1893;52.526;13.360;2023-07-02T01:37:05;17.10;99.90
3756;DHT22;1893;52.526;13.360;2023-07-02T01:39:31;17.10;99.90
3756;DHT22;1893;52.526;13.360;2023-07-02T01:42:18;17.00;99.90
3756;DHT22;1893;52.526;13.360;2023-07-02T01:44:45;17.00;99.90
3756;DHT22;1893;52.526;13.360;2023-07-02T01:47:11;17.10;99.90
3756;DHT22;1893;52.526;13.360;2023-07-02T01:49:37;17.10;99.90
3756;DHT22;1893;52.526;13.360;2023-07-02T01:52:04;17.10;99.90
3756;DHT22;1893;52.526;13.360;2023-07-02T01:54:32;17.10;99.90
3756;DHT22;1893;52.526;13.360;2023-07-02T01:56:58;17.00;99.90
3756;DHT22;1893;52.526;13.360;2023-07-02T01:59:24;17.00;99.90
3756;DHT22;1893;52.526;13.360;2023-07-02T02:01:50;17.00;99.90
3756;DHT22;1893;52.526;13.360;2023-07-02T02:04:16;16.90;99.90
3756;DHT22;1893;52.526;13.360;2023-07-02T02:06:41;17.00;99.90
3756;DHT22;1893;52.526;13.360;2023-07-02T02:09:08;16.90;99.90
3756;DHT22;1893;52.526;13.360;2023-07-02T02:11:37;16.90;99.90
3756;DHT22;1893;52.526;13.360;2023-07-02T02:14:20;16.90;99.90
3756;DHT22;1893;52.526;13.360;2023-07-02T02:16:47;16.80;99.90
3756;DHT22;1893;52.526;13.360;2023-07-02T02:19:13;16.80;99.90
3756;DHT22;1893;52.526;13.360;2023-07-02T02:21:40;16.80;99.90
3756;DHT22;1893;52.526;13.360;2023-07-02T02:24:06;16.90;99.90
3756;DHT22;1893;52.526;13.360;2023-07-02T02:26:35;16.90;99.90
3756;DHT22;1893;52.526;13.360;2023-07-02T02:29:01;16.80;99.90
3756;DHT22;1893;52.526;13.360;2023-07-02T02:31:27;16.80;99.90
3756;DHT22;1893;52.526;13.360;2023-07-02T02:33:53;16.80;99.90
3756;DHT22;1893;52.526;13.360;2023-07-02T02:36:19;16.80;99.90
3756;DHT22;1893;52.526;13.360;2023-07-02T02:38:45;16.80;99.90
3756;DHT22;1893;52.526;13.360;2023-07-02T02:41:10;16.80;99.90
3756;DHT22;1893;52.526;13.360;2023-07-02T02:43:36;16.80;99.90
3756;DHT22;1893;52.526;13.360;2023-07-02T02:46:01;16.70;99.90
3756;DHT22;1893;52.526;13.360;2023-07-02T02:48:27;16.70;99.90
3756;DHT22;1893;52.526;13.360;2023-07-02T02:50:53;16.70;99.90
3756;DHT22;1893;52.526;13.360;2023-07-02T02:53:18;16.80;99.90
3756;DHT22;1893;52.526;13.360;2023-07-02T02:55:44;16.70;99.90
3756;DHT22;1893;52.526;13.360;2023-07-02T02:58:09;16.80;99.90
3756;DHT22;1893;52.526;13.360;2023-07-02T03:00:35;16.80;99.90
3756;DHT22;1893;52.526;13.360;2023-07-02T03:03:01;16.80;99.90
3756;DHT22;1893;52.526;13.360;2023-07-02T03:05:27;16.70;99.90
3756;DHT22;1893;52.526;13.360;2023-07-02T03:07:53;16.70;99.90
3756;DHT22;1893;52.526;13.360;2023-07-02T03:10:18;16.70;99.90
3756;DHT22;1893;52.526;13.360;2023-07-02T03:12:44;16.70;99.90
3756;DHT22;1893;52.526;13.360;2023-07-02T03:15:10;16.80;99.90
3756;DHT22;1893;52.526;13.360;2023-07-02T03:17:36;16.70;99.90
3756;DHT22;1893;52.526;13.360;2023-07-02T03:20:03;16.70;99.90
3756;DHT22;1893;52.526;13.360;2023-07-02T03:22:33;16.70;99.90
3756;DHT22;1893;52.526;13.360;2023-07-02T03:24:59;16.60;99.90
3756;DHT22;1893;52.526;13.360;2023-07-02T03:27:24;16.60;99.90
3756;DHT22;1893;52.526;13.360;2023-07-02T03:29:52;16.70;99.90
3756;DHT22;1893;52.526;13.360;2023-07-02T03:32:18;16.60;99.90
3756;DHT22;1893;52.526;13.360;2023-07-02T03:34:43;16.70;99.90
3756;DHT22;1893;52.526;13.360;2023-07-02T03:37:09;16.80;99.90
3756;DHT22;1893;52.526;13.360;2023-07-02T03:39:34;16.80;99.90
3756;DHT22;1893;52.526;13.360;2023-07-02T03:42:00;16.80;99.90
3756;DHT22;1893;52.526;13.360;2023-07-02T03:44:26;16.70;99.90
3756;DHT22;1893;52.526;13.360;2023-07-02T03:46:51;16.70;99.90
3756;DHT22;1893;52.526;13.360;2023-07-02T03:49:17;16.70;99.90
3756;DHT22;1893;52.526;13.360;2023-07-02T03:51:42;16.60;99.90
3756;DHT22;1893;52.526;13.360;2023-07-02T03:54:08;16.60;99.90
3756;DHT22;1893;52.526;13.360;2023-07-02T03:56:34;16.60;39.70
3756;DHT22;1893;52.526;13.360;2023-07-02T03:58:59;16.60;10.80
3756;DHT22;1893;52.526;13.360;2023-07-02T04:01:25;16.70;15.40
3756;DHT22;1893;52.526;13.360;2023-07-02T04:03:52;16.50;1.00
3756;DHT22;1893;52.526;13.360;2023-07-02T04:06:18;16.60;1.00
3756;DHT22;1893;52.526;13.360;2023-07-02T04:08:44;16.60;1.00
3756;DHT22;1893;52.526;13.360;2023-07-02T04:11:11;16.60;1.00
3756;DHT22;1893;52.526;13.360;2023-07-02T04:13:37;16.70;1.00
3756;DHT22;1893;52.526;13.360;2023-07-02T04:16:03;16.60;1.00
3756;DHT22;1893;52.526;13.360;2023-07-02T04:18:28;16.60;1.00
3756;DHT22;1893;52.526;13.360;2023-07-02T04:20:57;16.60;1.00
3756;DHT22;1893;52.526;13.360;2023-07-02T04:23:24;16.60;1.00
3756;DHT22;1893;52.526;13.360;2023-07-02T04:25:49;16.60;1.00
3756;DHT22;1893;52.526;13.360;2023-07-02T04:28:16;16.70;1.00
3756;DHT22;1893;52.526;13.360;2023-07-02T04:30:41;16.60;1.00
3756;DHT22;1893;52.526;13.360;2023-07-02T04:33:07;16.70;1.00
3756;DHT22;1893;52.526;13.360;2023-07-02T04:35:33;16.80;1.00
3756;DHT22;1893;52.526;13.360;2023-07-02T04:38:00;16.90;1.00
3756;DHT22;1893;52.526;13.360;2023-07-02T04:40:26;16.80;1.00
3756;DHT22;1893;52.526;13.360;2023-07-02T04:42:51;16.90;1.00
3756;DHT22;1893;52.526;13.360;2023-07-02T04:45:23;17.00;1.00
3756;DHT22;1893;52.526;13.360;2023-07-02T04:47:50;17.00;99.90
3756;DHT22;1893;52.526;13.360;2023-07-02T04:50:16;17.00;99.90
3756;DHT22;1893;52.526;13.360;2023-07-02T04:52:42;17.00;99.90
3756;DHT22;1893;52.526;13.360;2023-07-02T04:55:08;17.00;99.90
3756;DHT22;1893;52.526;13.360;2023-07-02T04:57:33;16.90;99.90
3756;DHT22;1893;52.526;13.360;2023-07-02T04:59:59;16.90;99.90
3756;DHT22;1893;52.526;13.360;2023-07-02T05:02:24;17.00;99.90
3756;DHT22;1893;52.526;13.360;2023-07-02T05:04:50;17.00;99.90
3756;DHT22;1893;52.526;13.360;2023-07-02T05:07:16;17.20;99.90
3756;DHT22;1893;52.526;13.360;2023-07-02T05:09:42;17.30;99.90
3756;DHT22;1893;52.526;13.360;2023-07-02T05:12:09;17.40;99.90
3756;DHT22;1893;52.526;13.360;2023-07-02T05:14:34;17.40;99.90
3756;DHT22;1893;52.526;13.360;2023-07-02T05:17:00;17.50;99.90
3756;DHT22;1893;52.526;13.360;2023-07-02T05:19:26;17.60;99.90
3756;DHT22;1893;52.526;13.360;2023-07-02T05:21:51;17.70;99.90
3756;DHT22;1893;52.526;13.360;2023-07-02T05:24:17;17.60;99.90
3756;DHT22;1893;52.526;13.360;2023-07-02T05:26:43;17.50;99.90
3756;DHT22;1893;52.526;13.360;2023-07-02T05:29:09;17.50;99.90
3756;DHT22;1893;52.526;13.360;2023-07-02T05:31:34;17.50;99.90
3756;DHT22;1893;52.526;13.360;2023-07-02T05:34:00;17.70;99.90
3756;DHT22;1893;52.526;13.360;2023-07-02T05:36:26;17.70;99.90
3756;DHT22;1893;52.526;13.360;2023-07-02T05:38:51;17.80;99.90
3756;DHT22;1893;52.526;13.360;2023-07-02T05:41:20;17.90;99.90
3756;DHT22;1893;52.526;13.360;2023-07-02T05:43:46;17.80;99.90
3756;DHT22;1893;52.526;13.360;2023-07-02T05:46:11;17.70;99.90
3756;DHT22;1893;52.526;13.360;2023-07-02T05:48:41;17.80;99.90
3756;DHT22;1893;52.526;13.360;2023-07-02T05:51:07;17.80;99.90
3756;DHT22;1893;52.526;13.360;2023-07-02T05:53:34;17.90;99.90
3756;DHT22;1893;52.526;13.360;2023-07-02T05:55:59;17.90;99.90
3756;DHT22;1893;52.526;13.360;2023-07-02T05:58:25;18.00;99.90
3756;DHT22;1893;52.526;13.360;2023-07-02T06:00:50;18.10;99.90
3756;DHT22;1893;52.526;13.360;2023-07-02T06:03:18;18.20;99.90
3756;DHT22;1893;52.526;13.360;2023-07-02T06:05:49;18.30;99.90
3756;DHT22;1893;52.526;13.360;2023-07-02T06:08:16;18.60;99.90
3756;DHT22;1893;52.526;13.360;2023-07-02T06:10:43;18.60;99.90
3756;DHT22;1893;52.526;13.360;2023-07-02T06:13:09;18.60;99.90
3756;DHT22;1893;52.526;13.360;2023-07-02T06:15:35;18.60;99.90
3756;DHT22;1893;52.526;13.360;2023-07-02T06:18:00;18.60;99.90
3756;DHT22;1893;52.526;13.360;2023-07-02T06:20:26;18.50;99.90
3756;DHT22;1893;52.526;13.360;2023-07-02T06:22:52;18.50;99.90
3756;DHT22;1893;52.526;13.360;2023-07-02T06:25:17;18.50;99.90
3756;DHT22;1893;52.526;13.360;2023-07-02T06:27:43;18.40;99.90
3756;DHT22;1893;52.526;13.360;2023-07-02T06:30:09;18.50;99.90
3756;DHT22;1893;52.526;13.360;2023-07-02T06:32:34;18.50;99.90
3756;DHT22;1893;52.526;13.360;2023-07-02T06:35:00;18.60;99.90
3756;DHT22;1893;52.526;13.360;2023-07-02T06:37:26;18.40;99.90
3756;DHT22;1893;52.526;13.360;2023-07-02T06:39:51;18.40;99.90
3756;DHT22;1893;52.526;13.360;2023-07-02T06:42:17;18.50;99.90
3756;DHT22;1893;52.526;13.360;2023-07-02T06:44:43;18.70;99.90
3756;DHT22;1893;52.526;13.360;2023-07-02T06:47:08;18.80;99.90
3756;DHT22;1893;52.526;13.360;2023-07-02T06:49:34;18.90;99.90
3756;DHT22;1893;52.526;13.360;2023-07-02T06:52:00;19.10;99.90
3756;DHT22;1893;52.526;13.360;2023-07-02T06:54:26;19.30;99.90
3756;DHT22;1893;52.526;13.360;2023-07-02T06:56:52;19.30;99.90
3756;DHT22;1893;52.526;13.360;2023-07-02T06:59:21;19.10;99.90
3756;DHT22;1893;52.526;13.360;2023-07-02T07:01:47;19.00;99.90
3756;DHT22;1893;52.526;13.360;2023-07-02T07:04:13;19.00;99.90
3756;DHT22;1893;52.526;13.360;2023-07-02T07:06:39;19.00;99.90
3756;DHT22;1893;52.526;13.360;2023-07-02T07:09:04;19.00;99.90
3756;DHT22;1893;52.526;13.360;2023-07-02T07:11:30;18.90;99.90
3756;DHT22;1893;52.526;13.360;2023-07-02T07:13:55;19.10;99.90
3756;DHT22;1893;52.526;13.360;2023-07-02T07:16:21;19.20;99.90
3756;DHT22;1893;52.526;13.360;2023-07-02T07:18:48;19.10;99.90
3756;DHT22;1893;52.526;13.360;2023-07-02T07:21:13;19.00;99.90
3756;DHT22;1893;52.526;13.360;2023-07-02T07:23:40;19.00;99.90
3756;DHT22;1893;52.526;13.360;2023-07-02T07:26:06;19.00;99.90
3756;DHT22;1893;52.526;13.360;2023-07-02T07:28:32;18.90;99.90
3756;DHT22;1893;52.526;13.360;2023-07-02T07:30:58;18.90;99.90
3756;DHT22;1893;52.526;13.360;2023-07-02T07:33:23;19.10;99.90
3756;DHT22;1893;52.526;13.360;2023-07-02T07:35:49;19.50;99.90
3756;DHT22;1893;52.526;13.360;2023-07-02T07:38:15;19.50;99.90
3756;DHT22;1893;52.526;13.360;2023-07-02T07:40:42;19.30;99.90
3756;DHT22;1893;52.526;13.360;2023-07-02T07:43:08;19.40;99.90
3756;DHT22;1893;52.526;13.360;2023-07-02T07:45:33;19.50;99.90
3756;DHT22;1893;52.526;13.360;2023-07-02T07:48:00;19.40;99.90
3756;DHT22;1893;52.526;13.360;2023-07-02T07:50:25;19.30;99.90
3756;DHT22;1893;52.526;13.360;2023-07-02T07:52:51;19.10;99.90
3756;DHT22;1893;52.526;13.360;2023-07-02T07:55:17;19.00;99.90
3756;DHT22;1893;52.526;13.360;2023-07-02T07:57:42;18.90;99.90
3756;DHT22;1893;52.526;13.360;2023-07-02T08:00:08;18.90;99.90
3756;DHT22;1893;52.526;13.360;2023-07-02T08:02:38;18.70;99.90
3756;DHT22;1893;52.526;13.360;2023-07-02T08:05:05;18.60;99.90
3756;DHT22;1893;52.526;13.360;2023-07-02T08:07:31;18.60;99.90
3756;DHT22;1893;52.526;13.360;2023-07-02T08:09:58;18.60;99.90
3756;DHT22;1893;52.526;13.360;2023-07-02T08:12:23;18.50;99.90
3756;DHT22;1893;52.526;13.360;2023-07-02T08:14:49;18.50;99.90
3756;DHT22;1893;52.526;13.360;2023-07-02T08:17:15;18.50;99.90
3756;DHT22;1893;52.526;13.360;2023-07-02T08:19:40;18.40;99.90
3756;DHT22;1893;52.526;13.360;2023-07-02T08:22:06;18.50;99.90
3756;DHT22;1893;52.526;13.360;2023-07-02T08:24:32;18.60;99.90
3756;DHT22;1893;52.526;13.360;2023-07-02T08:26:58;18.40;99.90
3756;DHT22;1893;52.526;13.360;2023-07-02T08:29:24;18.50;99.90
3756;DHT22;1893;52.526;13.360;2023-07-02T08:31:50;18.50;99.90
3756;DHT22;1893;52.526;13.360;2023-07-02T08:34:15;18.60;99.90
3756;DHT22;1893;52.526;13.360;2023-07-02T08:36:41;18.60;99.90
3756;DHT22;1893;52.526;13.360;2023-07-02T08:39:09;18.60;99.90
3756;DHT22;1893;52.526;13.360;2023-07-02T08:41:44;18.60;99.90
3756;DHT22;1893;52.526;13.360;2023-07-02T08:44:11;18.70;99.90
3756;DHT22;1893;52.526;13.360;2023-07-02T08:46:41;18.60;99.90
3756;DHT22;1893;52.526;13.360;2023-07-02T08:49:08;18.70;99.90
3756;DHT22;1893;52.526;13.360;2023-07-02T08:51:34;18.60;99.90
3756;DHT22;1893;52.526;13.360;2023-07-02T08:54:01;18.60;99.90
3756;DHT22;1893;52.526;13.360;2023-07-02T08:56:27;18.60;99.90
3756;DHT22;1893;52.526;13.360;2023-07-02T08:58:53;18.50;99.90
3756;DHT22;1893;52.526;13.360;2023-07-02T09:01:18;18.60;99.90
3756;DHT22;1893;52.526;13.360;2023-07-02T09:03:44;18.70;99.90
3756;DHT22;1893;52.526;13.360;2023-07-02T09:06:11;18.80;99.90
3756;DHT22;1893;52.526;13.360;2023-07-02T09:08:37;18.90;99.90
3756;DHT22;1893;52.526;13.360;2023-07-02T09:13:44;19.00;99.90
3756;DHT22;1893;52.526;13.360;2023-07-02T09:19:05;19.10;99.90
3756;DHT22;1893;52.526;13.360;2023-07-02T09:21:47;19.30;99.90
3756;DHT22;1893;52.526;13.360;2023-07-02T09:26:43;19.30;99.90
3756;DHT22;1893;52.526;13.360;2023-07-02T09:29:08;19.10;99.90
3756;DHT22;1893;52.526;13.360;2023-07-02T09:31:46;19.30;99.90
3756;DHT22;1893;52.526;13.360;2023-07-02T09:34:12;19.50;99.90
3756;DHT22;1893;52.526;13.360;2023-07-02T09:36:38;19.40;99.90
3756;DHT22;1893;52.526;13.360;2023-07-02T09:39:28;19.60;99.90
3756;DHT22;1893;52.526;13.360;2023-07-02T09:42:02;20.00;99.90
3756;DHT22;1893;52.526;13.360;2023-07-02T09:44:29;20.40;99.90
3756;DHT22;1893;52.526;13.360;2023-07-02T09:47:01;20.30;99.90
3756;DHT22;1893;52.526;13.360;2023-07-02T09:49:33;20.80;99.90
3756;DHT22;1893;52.526;13.360;2023-07-02T09:52:08;21.00;99.90
3756;DHT22;1893;52.526;13.360;2023-07-02T09:54:34;20.70;99.90
3756;DHT22;1893;52.526;13.360;2023-07-02T09:57:01;20.70;99.90
3756;DHT22;1893;52.526;13.360;2023-07-02T09:59:27;21.30;99.90
3756;DHT22;1893;52.526;13.360;2023-07-02T10:01:53;21.00;99.90
3756;DHT22;1893;52.526;13.360;2023-07-02T10:04:20;21.70;99.90
3756;DHT22;1893;52.526;13.360;2023-07-02T10:06:56;21.50;99.90
3756;DHT22;1893;52.526;13.360;2023-07-02T10:09:43;21.80;99.90
3756;DHT22;1893;52.526;13.360;2023-07-02T10:12:18;22.60;99.90
3756;DHT22;1893;52.526;13.360;2023-07-02T10:14:45;22.90;99.90
3756;DHT22;1893;52.526;13.360;2023-07-02T10:17:23;23.40;99.90
3756;DHT22;1893;52.526;13.360;2023-07-02T10:19:53;24.10;99.90
3756;DHT22;1893;52.526;13.360;2023-07-02T10:22:19;24.00;99.90
3756;DHT22;1893;52.526;13.360;2023-07-02T10:24:55;23.10;99.90
3756;DHT22;1893;52.526;13.360;2023-07-02T10:27:39;22.50;99.90
3756;DHT22;1893;52.526;13.360;2023-07-02T10:30:06;23.10;99.90
3756;DHT22;1893;52.526;13.360;2023-07-02T10:32:33;23.10;99.90
3756;DHT22;1893;52.526;13.360;2023-07-02T10:35:21;23.60;99.90
3756;DHT22;1893;52.526;13.360;2023-07-02T10:37:46;23.10;99.90
3756;DHT22;1893;52.526;13.360;2023-07-02T10:40:12;23.30;99.90
3756;DHT22;1893;52.526;13.360;2023-07-02T10:42:51;22.80;99.90
3756;DHT22;1893;52.526;13.360;2023-07-02T10:45:17;22.70;99.90
3756;DHT22;1893;52.526;13.360;2023-07-02T10:47:43;21.90;99.90
3756;DHT22;1893;52.526;13.360;2023-07-02T10:50:19;21.90;99.90
3756;DHT22;1893;52.526;13.360;2023-07-02T10:52:49;21.40;99.90
3756;DHT22;1893;52.526;13.360;2023-07-02T10:55:22;21.10;99.90
3756;DHT22;1893;52.526;13.360;2023-07-02T10:57:49;20.80;99.90
3756;DHT22;1893;52.526;13.360;2023-07-02T11:00:18;21.00;99.90
3756;DHT22;1893;52.526;13.360;2023-07-02T11:02:44;21.00;99.90
3756;DHT22;1893;52.526;13.360;2023-07-02T11:05:09;21.20;99.90
3756;DHT22;1893;52.526;13.360;2023-07-02T11:07:39;20.90;99.90
3756;DHT22;1893;52.526;13.360;2023-07-02T11:10:06;20.70;99.90
3756;DHT22;1893;52.526;13.360;2023-07-02T11:12:32;20.40;99.90
3756;DHT22;1893;52.526;13.360;2023-07-02T11:15:35;20.30;99.90
3756;DHT22;1893;52.526;13.360;2023-07-02T11:18:15;21.30;99.90
3756;DHT22;1893;52.526;13.360;2023-07-02T11:20:43;22.70;99.90
3756;DHT22;1893;52.526;13.360;2023-07-02T11:23:19;23.40;99.90
3756;DHT22;1893;52.526;13.360;2023-07-02T11:26:02;22.70;99.90
3756;DHT22;1893;52.526;13.360;2023-07-02T11:28:29;22.90;99.90
3756;DHT22;1893;52.526;13.360;2023-07-02T11:30:56;23.10;99.90
3756;DHT22;1893;52.526;13.360;2023-07-02T11:33:36;23.50;99.90
3756;DHT22;1893;52.526;13.360;2023-07-02T11:36:02;22.80;99.90
3756;DHT22;1893;52.526;13.360;2023-07-02T11:38:28;22.50;99.90
3756;DHT22;1893;52.526;13.360;2023-07-02T11:40:53;23.00;99.90
3756;DHT22;1893;52.526;13.360;2023-07-02T11:43:19;21.90;99.90
3756;DHT22;1893;52.526;13.360;2023-07-02T11:45:45;21.90;99.90
3756;DHT22;1893;52.526;13.360;2023-07-02T11:48:11;22.00;99.90
3756;DHT22;1893;52.526;13.360;2023-07-02T11:50:37;22.50;99.90
3756;DHT22;1893;52.526;13.360;2023-07-02T11:53:03;23.00;99.90
3756;DHT22;1893;52.526;13.360;2023-07-02T11:55:28;22.90;99.90
3756;DHT22;1893;52.526;13.360;2023-07-02T11:57:54;22.80;99.90
3756;DHT22;1893;52.526;13.360;2023-07-02T12:00:20;21.80;99.90
3756;DHT22;1893;52.526;13.360;2023-07-02T12:02:46;21.70;99.90
3756;DHT22;1893;52.526;13.360;2023-07-02T12:05:11;21.70;99.90
3756;DHT22;1893;52.526;13.360;2023-07-02T12:07:37;21.90;99.90
3756;DHT22;1893;52.526;13.360;2023-07-02T12:10:03;22.10;99.90
3756;DHT22;1893;52.526;13.360;2023-07-02T12:12:28;22.20;99.90
3756;DHT22;1893;52.526;13.360;2023-07-02T12:14:54;22.60;99.90
3756;DHT22;1893;52.526;13.360;2023-07-02T12:17:19;22.60;99.90
3756;DHT22;1893;52.526;13.360;2023-07-02T12:19:45;22.50;99.90
3756;DHT22;1893;52.526;13.360;2023-07-02T12:22:10;22.50;99.90
3756;DHT22;1893;52.526;13.360;2023-07-02T12:24:36;22.60;99.90
3756;DHT22;1893;52.526;13.360;2023-07-02T12:27:02;23.20;99.90
3756;DHT22;1893;52.526;13.360;2023-07-02T12:29:28;22.90;99.90
3756;DHT22;1893;52.526;13.360;2023-07-02T12:31:53;23.00;99.90
3756;DHT22;1893;52.526;13.360;2023-07-02T12:34:19;22.70;99.90
3756;DHT22;1893;52.526;13.360;2023-07-02T12:36:44;22.70;99.90
3756;DHT22;1893;52.526;13.360;2023-07-02T12:39:10;22.50;99.90
3756;DHT22;1893;52.526;13.360;2023-07-02T12:41:36;22.80;99.90
3756;DHT22;1893;52.526;13.360;2023-07-02T12:44:01;22.80;99.90
3756;DHT22;1893;52.526;13.360;2023-07-02T12:46:27;23.00;99.90
3756;DHT22;1893;52.526;13.360;2023-07-02T12:48:52;23.10;99.90
3756;DHT22;1893;52.526;13.360;2023-07-02T12:51:18;23.40;99.90
3756;DHT22;1893;52.526;13.360;2023-07-02T12:53:44;23.70;99.90
3756;DHT22;1893;52.526;13.360;2023-07-02T12:56:09;23.80;99.90
3756;DHT22;1893;52.526;13.360;2023-07-02T12:58:35;23.80;99.90
3756;DHT22;1893;52.526;13.360;2023-07-02T13:01:00;23.20;99.90
3756;DHT22;1893;52.526;13.360;2023-07-02T13:03:30;22.30;99.90
3756;DHT22;1893;52.526;13.360;2023-07-02T13:05:55;22.10;99.90
3756;DHT22;1893;52.526;13.360;2023-07-02T13:08:21;22.40;99.90
3756;DHT22;1893;52.526;13.360;2023-07-02T13:10:47;23.00;99.90
3756;DHT22;1893;52.526;13.360;2023-07-02T13:13:12;23.10;99.90
3756;DHT22;1893;52.526;13.360;2023-07-02T13:15:38;22.90;99.90
3756;DHT22;1893;52.526;13.360;2023-07-02T13:18:03;22.70;99.90
3756;DHT22;1893;52.526;13.360;2023-07-02T13:20:29;22.40;99.90
3756;DHT22;1893;52.526;13.360;2023-07-02T13:22:55;22.30;99.90
3756;DHT22;1893;52.526;13.360;2023-07-02T13:25:21;22.60;99.90
3756;DHT22;1893;52.526;13.360;2023-07-02T13:27:47;22.50;99.90
3756;DHT22;1893;52.526;13.360;2023-07-02T13:30:12;22.50;99.90
3756;DHT22;1893;52.526;13.360;2023-07-02T13:32:38;22.80;99.90
3756;DHT22;1893;52.526;13.360;2023-07-02T13:35:04;23.00;99.90
3756;DHT22;1893;52.526;13.360;2023-07-02T13:37:29;22.60;99.90
3756;DHT22;1893;52.526;13.360;2023-07-02T13:39:55;22.40;99.90
3756;DHT22;1893;52.526;13.360;2023-07-02T13:42:21;22.40;99.90
3756;DHT22;1893;52.526;13.360;2023-07-02T13:44:46;22.90;99.90
3756;DHT22;1893;52.526;13.360;2023-07-02T13:47:12;23.20;99.90
3756;DHT22;1893;52.526;13.360;2023-07-02T13:49:37;23.10;99.90
3756;DHT22;1893;52.526;13.360;2023-07-02T13:52:03;23.10;99.90
3756;DHT22;1893;52.526;13.360;2023-07-02T13:54:29;22.90;99.90
3756;DHT22;1893;52.526;13.360;2023-07-02T13:56:56;22.60;99.90
3756;DHT22;1893;52.526;13.360;2023-07-02T13:59:22;22.60;99.90
3756;DHT22;1893;52.526;13.360;2023-07-02T14:01:49;22.30;99.90
3756;DHT22;1893;52.526;13.360;2023-07-02T14:04:16;22.70;99.90
3756;DHT22;1893;52.526;13.360;2023-07-02T14:06:42;23.00;99.90
3756;DHT22;1893;52.526;13.360;2023-07-02T14:09:08;22.70;99.90
3756;DHT22;1893;52.526;13.360;2023-07-02T14:11:36;22.50;99.90
3756;DHT22;1893;52.526;13.360;2023-07-02T14:14:02;22.30;99.90
3756;DHT22;1893;52.526;13.360;2023-07-02T14:16:28;22.00;99.90
3756;DHT22;1893;52.526;13.360;2023-07-02T14:18:53;22.00;99.90
3756;DHT22;1893;52.526;13.360;2023-07-02T14:21:19;21.80;99.90
3756;DHT22;1893;52.526;13.360;2023-07-02T14:23:45;21.80;99.90
3756;DHT22;1893;52.526;13.360;2023-07-02T14:26:11;22.20;99.90
3756;DHT22;1893;52.526;13.360;2023-07-02T14:28:37;22.50;99.90
3756;DHT22;1893;52.526;13.360;2023-07-02T14:31:04;22.60;99.90
3756;DHT22;1893;52.526;13.360;2023-07-02T14:33:32;22.40;99.90
3756;DHT22;1893;52.526;13.360;2023-07-02T14:35:59;22.60;99.90
3756;DHT22;1893;52.526;13.360;2023-07-02T14:38:24;22.40;99.90
3756;DHT22;1893;52.526;13.360;2023-07-02T14:40:51;22.60;99.30
3756;DHT22;1893;52.526;13.360;2023-07-02T14:43:18;22.40;98.50
3756;DHT22;1893;52.526;13.360;2023-07-02T14:45:47;22.20;99.10
3756;DHT22;1893;52.526;13.360;2023-07-02T14:48:14;21.90;99.10
3756;DHT22;1893;52.526;13.360;2023-07-02T14:50:44;22.20;99.20
3756;DHT22;1893;52.526;13.360;2023-07-02T14:53:11;22.60;99.60
3756;DHT22;1893;52.526;13.360;2023-07-02T14:55:36;22.70;98.20
3756;DHT22;1893;52.526;13.360;2023-07-02T14:58:02;22.30;99.00
3756;DHT22;1893;52.526;13.360;2023-07-02T15:00:28;22.10;99.50
3756;DHT22;1893;52.526;13.360;2023-07-02T15:02:53;22.20;99.40
3756;DHT22;1893;52.526;13.360;2023-07-02T15:05:19;22.50;99.20
3756;DHT22;1893;52.526;13.360;2023-07-02T15:07:44;22.60;98.60
3756;DHT22;1893;52.526;13.360;2023-07-02T15:10:10;22.50;98.60
3756;DHT22;1893;52.526;13.360;2023-07-02T15:12:36;22.00;98.60
3756;DHT22;1893;52.526;13.360;2023-07-02T15:15:03;21.80;98.70
3756;DHT22;1893;52.526;13.360;2023-07-02T15:17:28;21.80;99.00
3756;DHT22;1893;52.526;13.360;2023-07-02T15:19:55;21.90;99.00
3756;DHT22;1893;52.526;13.360;2023-07-02T15:22:21;21.70;98.50
3756;DHT22;1893;52.526;13.360;2023-07-02T15:24:46;21.80;99.00
3756;DHT22;1893;52.526;13.360;2023-07-02T15:27:12;22.00;99.80
3756;DHT22;1893;52.526;13.360;2023-07-02T15:29:37;22.30;99.80
3756;DHT22;1893;52.526;13.360;2023-07-02T15:32:03;22.40;99.80
3756;DHT22;1893;52.526;13.360;2023-07-02T15:34:29;22.40;99.90
3756;DHT22;1893;52.526;13.360;2023-07-02T15:36:54;22.20;99.90
3756;DHT22;1893;52.526;13.360;2023-07-02T15:39:21;22.30;99.90
3756;DHT22;1893;52.526;13.360;2023-07-02T15:41:48;22.30;99.90
3756;DHT22;1893;52.526;13.360;2023-07-02T15:44:14;22.30;99.90
3756;DHT22;1893;52.526;13.360;2023-07-02T15:46:40;22.10;99.90
3756;DHT22;1893;52.526;13.360;2023-07-02T15:49:06;22.00;99.90
3756;DHT22;1893;52.526;13.360;2023-07-02T15:51:32;22.20;99.80
3756;DHT22;1893;52.526;13.360;2023-07-02T15:54:02;22.30;99.60